WEATHER DATA

YESTERDAY
Time Temp. Dewp. Hum. Wind dir Wind speed Wind gust Bar. 1h Prec. 24h Prec.
00:09 15.7 8.4 62 0 0.3 1.1 1026.6 0.0000 0.0000
00:19 15.5 8.3 62 21 0.3 1.4 1026.5 0.0000 0.0000
00:29 15.3 8.1 62 5 0.3 1.1 1026.5 0.0000 0.0000
00:40 15.1 7.9 62 37 0.3 1.1 1026.4 0.0000 0.0000
00:49 15 8 63 6 0.3 0.8 1026.3 0.0000 0.0000
00:59 14.9 7.9 63 36 0.3 1.1 1026.2 0.0000 0.0000
01:10 14.7 7.7 63 0 0.8 1026.2 0.0000 0.0000
01:20 14.6 7.9 64 333 0.3 1.1 1026.1 0.0000 0.0000
01:30 14.6 7.9 64 0 0.8 1026 0.0000 0.0000
01:39 14.4 7.5 63 26 0.3 1.4 1026 0.0000 0.0000
01:50 14.2 7.5 64 0 0.8 1025.9 0.0000 0.0000
02:00 14.1 7.4 64 0 0.8 1025.8 0.0000 0.0000
02:10 14 7.5 65 0 0.8 1025.7 0.0000 0.0000
02:20 13.9 7.4 65 5 0.3 1.1 1025.6 0.0000 0.0000
02:30 13.8 7.3 65 0 0.8 1025.4 0.0000 0.0000
02:40 13.7 7.2 65 0 0.8 1025.3 0.0000 0.0000
02:50 13.6 7.2 65 0 0.8 1025.2 0.0000 0.0000
03:01 13.5 7.1 65 333 0.3 1.1 1025.1 0.0000 0.0000
03:10 13.3 6.9 65 0 0.8 1025 0.0000 0.0000
03:20 13.1 6.7 65 0 0.8 1024.9 0.0000 0.0000
03:30 13 6.6 65 6 0.3 0.8 1024.8 0.0000 0.0000
03:41 12.9 6.7 66 0 0.8 1024.7 0.0000 0.0000
03:50 12.8 6.8 67 0 0.8 1024.6 0.0000 0.0000
04:00 12.8 6.8 67 0 0.8 1024.5 0.0000 0.0000
04:11 12.6 6.9 68 0 0.3 1024.4 0.0000 0.0000
04:21 12.5 6.8 68 0 0.8 1024.3 0.0000 0.0000
04:31 12.4 6.7 68 0 0.3 1024.3 0.0000 0.0000
04:41 12.3 6.6 68 0 0.8 1024.1 0.0000 0.0000
04:51 12.2 6.7 69 0 0.8 1023.9 0.0000 0.0000
05:01 12 6.5 69 0 0.3 1023.8 0.0000 0.0000
05:11 11.9 6.6 70 0 0.8 1023.6 0.0000 0.0000
05:21 11.8 6.5 70 0 0.3 1023.4 0.0000 0.0000
05:31 11.7 6.4 70 0 0.3 1023.3 0.0000 0.0000
05:41 11.6 6.5 71 0 0.8 1023.3 0.0000 0.0000
05:51 11.5 6.4 71 323 0.3 0.8 1023.3 0.0000 0.0000
06:02 11.3 6.2 71 0 0.8 1023.2 0.0000 0.0000
06:11 11.3 6.4 72 0 0.8 1023.1 0.0000 0.0000
06:21 11.2 6.3 72 0 0.3 1023.1 0.0000 0.0000
06:32 11.1 6.4 73 0 0.8 1023 0.0000 0.0000
06:42 11 6.4 73 0 0.8 1023 0.0000 0.0000
06:51 10.9 6.5 74 0 0.8 1023 0.0000 0.0000
07:02 10.9 6.5 74 315 0.3 0.8 1022.9 0.0000 0.0000
07:12 10.8 6.6 75 0 0.3 1022.9 0.0000 0.0000
07:22 10.8 6.6 75 0 0.8 1022.8 0.0000 0.0000
07:31 10.9 6.8 76 0 0.8 1022.7 0.0000 0.0000
07:42 11 6.9 76 0 0.3 1022.7 0.0000 0.0000
07:52 11 6.9 76 324 0.3 0.8 1022.7 0.0000 0.0000
08:02 11.2 7.1 76 341 0.3 0.8 1022.8 0.0000 0.0000
08:12 11.3 7.2 76 270 0.3 0.8 1022.7 0.0000 0.0000
08:22 11.4 7.3 76 315 0.3 1.4 1022.6 0.0000 0.0000
08:32 11.6 7.5 76 270 0.3 1.1 1022.6 0.0000 0.0000
08:42 11.7 7.6 76 270 0.3 1.4 1022.6 0.0000 0.0000
08:53 11.9 7.8 76 270 0.3 0.8 1022.6 0.0000 0.0000
09:02 12.2 8.1 76 225 0.3 1.1 1022.5 0.0000 0.0000
09:12 12.7 8.4 75 315 0.3 1.4 1022.5 0.0000 0.0000
09:23 13.4 8.7 73 315 0.3 1.4 1022.4 0.0000 0.0000
09:33 14.1 8.5 69 30 0.3 1.1 1022.3 0.0000 0.0000
09:43 14.9 8.4 65 344 0.3 1.4 1022.3 0.0000 0.0000
09:52 15.4 8.4 63 45 0.3 1.4 1022.2 0.0000 0.0000
10:03 15.9 8.6 62 315 0.3 1.1 1022.1 0.0000 0.0000
10:13 16.4 8.9 61 210 0.3 1.1 1022.1 0.0000 0.0000
10:23 16.9 8.8 59 26 0.3 1.4 1022 0.0000 0.0000
10:33 17.3 9.2 59 270 0.3 1.4 1021.9 0.0000 0.0000
10:43 17.7 9.3 58 225 0.3 1.1 1021.9 0.0000 0.0000
10:53 18.2 9.8 58 230 0.3 1.1 1021.8 0.0000 0.0000
11:03 18.5 9 54 239 0.3 1.4 1021.6 0.0000 0.0000
11:14 18.5 9.3 55 90 0.3 1.4 1021.5 0.0000 0.0000
11:23 18.7 9.2 54 225 0.3 1.1 1021.5 0.0000 0.0000
11:33 18.9 9.1 53 90 0.3 1.4 1021.4 0.0000 0.0000
11:44 18.9 8.6 51 90 0.3 2.2 1021.3 0.0000 0.0000
11:54 18.8 8.5 51 90 0.8 2.5 1021.2 0.0000 0.0000
12:04 18.6 8.3 51 225 0.3 1.4 1021 0.0000 0.0000
12:13 18.6 8.3 51 270 0.3 1.4 1021 0.0000 0.0000
12:24 18.7 7.8 49 45 0.3 2.2 1020.8 0.0000 0.0000
12:34 18.7 9.2 54 225 0.3 1.1 1020.7 0.0000 0.0000
12:44 18.8 8.7 52 233 0.3 1.4 1020.6 0.0000 0.0000
12:54 18.8 9 53 203 0.3 1.4 1020.5 0.0000 0.0000
13:05 18.8 8.7 52 225 0.3 1.4 1020.3 0.0000 0.0000
13:14 18.9 8.8 52 168 0.8 1.7 1020.2 0.0000 0.0000
13:24 18.8 8.7 52 236 0.8 2.2 1020 0.0000 0.0000
13:35 18.8 8.5 51 225 0.3 1.4 1019.9 0.0000 0.0000
13:45 18.8 8.2 50 209 0.3 1.7 1019.7 0.0000 0.0000
13:55 18.9 8.3 50 198 0.3 1.4 1019.6 0.0000 0.0000
14:05 19 8.4 50 231 0.3 1.4 1019.6 0.0000 0.0000
14:15 19.1 7.8 48 212 0.3 2.2 1019.5 0.0000 0.0000
14:25 19.2 7.6 47 45 0.3 1.4 1019.4 0.0000 0.0000
14:35 19.4 7.5 46 0 0.3 1.4 1019.3 0.0000 0.0000
14:45 19.5 7.6 46 225 0.3 1.4 1019.2 0.0000 0.0000
14:55 19.5 7.6 46 225 0.8 1.7 1018.9 0.0000 0.0000
15:05 19.5 7.3 45 230 0.3 1.7 1018.7 0.0000 0.0000
15:15 19.8 7.9 46 225 0.3 2.5 1018.6 0.0000 0.0000
15:26 20.1 7.8 45 186 0.8 1.7 1018.4 0.0000 0.0000
15:36 20.2 7.6 44 90 0.8 2.5 1018.3 0.0000 0.0000
15:45 20.4 7.8 44 198 0.3 1.7 1018.1 0.0000 0.0000
15:56 20.4 7.1 42 230 0.8 1.7 1018 0.0000 0.0000
16:06 20.5 7.5 43 225 0.3 1.4 1017.9 0.0000 0.0000
16:16 20.7 7.7 43 195 0.3 1.7 1017.7 0.0000 0.0000
16:25 20.8 7.4 42 270 0.3 1.4 1017.5 0.0000 0.0000
16:36 21 8 43 0.3 1.7 1017.4 0.0000 0.0000
16:46 21 7.6 42 225 0.3 1.7 1017.2 0.0000 0.0000
16:56 21.1 7.7 42 230 0.3 1.4 1017.1 0.0000 0.0000
17:07 20.9 7.2 41 234 0.3 2.2 1016.9 0.0000 0.0000
17:16 20.9 7.5 42 239 0.3 2.2 1016.9 0.0000 0.0000
17:26 20.9 7.2 41 90 0.3 1.7 1016.7 0.0000 0.0000
17:36 21.1 7.3 41 270 0.3 1.4 1016.6 0.0000 0.0000
17:47 21.2 7.4 41 270 0.3 1.4 1016.5 0.0000 0.0000
17:57 21.2 7.1 40 270 0.3 1.7 1016.4 0.0000 0.0000
18:06 21.3 7.5 41 235 0.3 1.7 1016.3 0.0000 0.0000
18:17 21.3 7.5 41 210 0.3 1.4 1016.2 0.0000 0.0000
18:27 21.4 7.6 41 237 0.3 1.4 1016 0.0000 0.0000
18:37 21.4 7.6 41 225 0.3 1.1 1015.9 0.0000 0.0000
18:47 21.3 7.5 41 225 0.3 1.4 1015.8 0.0000 0.0000
18:57 21.2 7.8 42 270 0.3 1.1 1015.7 0.0000 0.0000
19:07 20.9 8.9 46 194 0.3 1.4 1015.6 0.0000 0.0000
19:17 20.7 9.9 50 225 0.3 1.4 1015.6 0.0000 0.0000
19:28 20.4 9.6 50 225 0.3 1.1 1015.6 0.0000 0.0000
19:38 20.1 9.7 51 231 0.3 1.1 1015.4 0.0000 0.0000
19:47 19.9 9.8 52 225 0.3 1.4 1015.4 0.0000 0.0000
19:57 19.5 9.4 52 0 0.8 1015.3 0.0000 0.0000
20:08 19.5 9.7 53 270 0.3 0.8 1015.3 0.0000 0.0000
20:18 19.3 9.5 53 225 0.3 1.1 1015.3 0.0000 0.0000
20:28 19 9.5 54 239 0.3 1.1 1015.2 0.0000 0.0000
20:38 18.8 9.3 54 270 0.3 0.8 1015.3 0.0000 0.0000
20:48 18.6 9.4 55 270 0.3 0.8 1015.2 0.0000 0.0000
20:58 18.4 9.2 55 270 0.3 0.8 1015.3 0.0000 0.0000
21:08 18.2 9.3 56 270 0.3 1.1 1015.2 0.0000 0.0000
21:19 18 9.6 58 270 0.3 0.8 1015.3 0.0000 0.0000
21:28 17.8 9.9 60 270 0.3 0.8 1015.2 0.0000 0.0000
21:38 17.6 10.2 62 270 0.3 1.1 1015.1 0.0000 0.0000
21:48 17.3 10.4 64 270 0.3 1.1 1015.1 0.0000 0.0000
21:59 17.1 10.5 65 270 0.3 0.8 1015 0.0000 0.0000
22:09 16.9 10.5 66 270 0.3 0.8 1015 0.0000 0.0000
22:18 16.8 10.6 67 0 0.8 1015 0.0000 0.0000
22:29 16.7 10.8 68 270 0.3 0.8 1014.9 0.0000 0.0000
22:39 16.5 10.8 69 0 0.8 1014.9 0.0000 0.0000
22:49 16.3 10.6 69 0 0.3 1014.8 0.0000 0.0000
22:59 16.2 10.7 70 0 0.3 1014.7 0.0000 0.0000
23:09 16.1 10.6 70 0 0.8 1014.7 0.0000 0.0000
23:19 15.9 10.7 71 315 0.3 0.8 1014.5 0.0000 0.0000
23:29 15.7 10.5 71 322 0.3 0.8 1014.5 0.0000 0.0000
23:40 15.6 10.4 71 331 0.3 0.8 1014.4 0.0000 0.0000
23:50 15.4 10.4 72 321 0.3 0.8 1014.4 0.0000 0.0000

DAY STATISTIC

2019-04-21
TEMPERATURE
AVERAGE
16.4
HIGH
21.4
18:27
LOW
10.8
07:12
PRESSURE
AVERAGE
1020.4
HIGH
1026.6
00:09
LOW
1014.4
23:40
DEWPOINT
AVERAGE
8.1
HIGH
10.8
22:29
LOW
6.2
06:02
HUMIDITY
AVERAGE
59
HIGH
76
07:31
LOW
40
17:57
WIND SPEED
AVERAGE
0.2
HIGH
0.8
11:54
WIND GUST
AVERAGE
1.1
HIGH
2.5
11:54
WIND DIRECTION
PREVAILING
SW
25.4%
N
6.3
NE
5.6
E
4.2
SE
0.0
S
4.9
SW
25.4
W
16.2
NW
9.2
PRECIPITATION
RAIN HOUR
0.0
RAIN DAY
0.0
TEMPERATURE (°C)
LOW
10.8
HIGH
21.4
AVERAGE
16.4
PRESSURE (hpa)
LOW
1014.4
HIGH
1026.6
AVERAGE
1020.4
DEVICE